Time;durP1;ratioP1;P1;durP2;ratioP2;P2;SDS_P1;SDS_P2;PMS_P1;PMS_P2;Temp;Humidity;BMP_temperature;BMP_pressure;BME280_temperature;BME280_humidity;BME280_pressure;Samples;Min_cycle;Max_cycle;Signal;HPM_P1;HPM_P2
2022/08/03 00:01:25;;;;;;;;;;;;;;;24.05;50.83;101208.19;4996976;28;4197;-67
2022/08/03 00:03:51;;;;;;;;;;;;;;;24.09;50.68;101199.66;5000127;28;4243;-66
2022/08/03 00:06:18;;;;;;;;;;;;;;;24.08;50.71;101201.09;4997917;28;5316;-67
2022/08/03 00:08:44;;;;;;;;;;;;;;;24.07;50.78;101199.59;5001301;28;4217;-67
2022/08/03 00:11:10;;;;;;;;;;;;;;;24.07;50.79;101198.84;4999356;28;5349;-67
2022/08/03 00:13:37;;;;;;;;;;;;;;;24.06;50.68;101195.22;5001377;28;4245;-67
2022/08/03 00:16:03;;;;;;;;;;;;;;;24.04;50.65;101203.81;4997169;28;4361;-67
2022/08/03 00:18:30;;;;;;;;;;;;;;;24.04;50.72;101192.25;4998135;28;4317;-67
2022/08/03 00:20:56;;;;;;;;;;;;;;;24.03;50.79;101190.78;5001344;28;4307;-66
2022/08/03 00:23:22;;;;;;;;;;;;;;;24.01;50.82;101190.69;4998131;28;4252;-66
2022/08/03 00:25:49;;;;;;;;;;;;;;;23.99;50.47;101182.69;4997033;28;4242;-66
2022/08/03 00:28:15;;;;;;;;;;;;;;;24.00;50.78;101183.41;4999308;28;5347;-66
2022/08/03 00:30:41;;;;;;;;;;;;;;;23.99;50.60;101176.16;4999562;28;5313;-66
2022/08/03 00:33:09;;;;;;;;;;;;;;;23.96;50.53;101177.47;4999796;28;5251;-66
2022/08/03 00:35:36;;;;;;;;;;;;;;;23.95;50.46;101176.75;4997077;28;4056;-66
2022/08/03 00:38:16;;;;;;;;;;;;;;;23.94;50.25;101174.53;4997608;28;4362;-67
2022/08/03 00:40:43;;;;;;;;;;;;;;;23.95;50.22;101173.13;4996925;28;4047;-67
2022/08/03 00:43:10;;;;;;;;;;;;;;;23.94;50.33;101168.75;4997947;28;4375;-67
2022/08/03 00:45:37;;;;;;;;;;;;;;;23.93;50.18;101167.25;5000031;28;4230;-67
2022/08/03 00:48:04;;;;;;;;;;;;;;;23.93;50.34;101162.19;4998509;28;4061;-68
2022/08/03 00:50:31;;;;;;;;;;;;;;;23.97;50.11;101171.03;4999296;28;6304;-68
2022/08/03 00:52:57;;;;;;;;;;;;;;;23.99;49.85;101176.16;5003141;28;4173;-68
2022/08/03 00:55:24;;;;;;;;;;;;;;;23.95;50.26;101161.53;4998774;28;5256;-68
2022/08/03 00:57:50;;;;;;;;;;;;;;;23.95;50.21;101165.19;4999388;28;4243;-66
2022/08/03 01:00:18;;;;;;;;;;;;;;;24.00;50.16;101160.28;4998556;28;4320;-67
2022/08/03 01:02:44;;;;;;;;;;;;;;;24.08;49.69;101160.56;4996887;28;5489;-67
2022/08/03 01:05:10;;;;;;;;;;;;;;;23.99;50.19;101158.81;4996354;28;4307;-66
2022/08/03 01:07:55;;;;;;;;;;;;;;;23.94;50.21;101160.81;4999229;28;5278;-67
2022/08/03 01:10:28;;;;;;;;;;;;;;;23.94;50.19;101165.84;4998771;28;4152;-67
2022/08/03 01:12:58;;;;;;;;;;;;;;;23.93;50.11;101168.00;5000834;28;5244;-66
2022/08/03 01:15:53;;;;;;;;;;;;;;;23.91;50.22;101158.50;4995936;28;5523;-67
2022/08/03 01:18:21;;;;;;;;;;;;;;;23.93;50.20;101149.91;4979154;28;4186;-67
2022/08/03 01:20:48;;;;;;;;;;;;;;;23.91;50.07;101158.50;4984462;28;3980;-66
2022/08/03 01:23:34;;;;;;;;;;;;;;;23.89;50.25;101156.28;4998881;28;4226;-67
2022/08/03 01:26:20;;;;;;;;;;;;;;;23.92;49.93;101154.22;4996859;28;4183;-67
2022/08/03 01:28:58;;;;;;;;;;;;;;;23.92;50.06;101160.00;4995224;28;4264;-67
2022/08/03 01:31:25;;;;;;;;;;;;;;;23.91;49.85;101146.94;4994086;28;4381;-67
2022/08/03 01:33:54;;;;;;;;;;;;;;;23.91;49.86;101141.88;4994382;28;4148;-67
2022/08/03 01:36:21;;;;;;;;;;;;;;;23.99;49.85;101142.19;4995243;28;4171;-66
2022/08/03 01:38:48;;;;;;;;;;;;;;;23.89;50.14;101141.84;4998127;28;5432;-67
2022/08/03 01:41:20;;;;;;;;;;;;;;;23.91;49.98;101146.94;5000076;28;4316;-66
2022/08/03 01:43:48;;;;;;;;;;;;;;;23.91;49.72;101144.03;4999091;28;4159;-66
2022/08/03 01:46:34;;;;;;;;;;;;;;;23.89;49.95;101143.97;4992337;28;4095;-66
2022/08/03 01:49:01;;;;;;;;;;;;;;;23.91;49.59;101141.16;4999334;28;4237;-66
2022/08/03 01:51:34;;;;;;;;;;;;;;;23.89;49.84;101143.97;4993981;28;6039;-67
2022/08/03 01:54:21;;;;;;;;;;;;;;;23.93;49.64;101138.31;4997090;28;5337;-67
2022/08/03 01:56:47;;;;;;;;;;;;;;;23.94;49.57;101145.63;4993809;28;5495;-66
2022/08/03 01:59:14;;;;;;;;;;;;;;;23.93;49.42;101141.22;4994910;28;4167;-67
2022/08/03 02:01:40;;;;;;;;;;;;;;;23.91;49.72;101141.88;4996349;28;5919;-67
2022/08/03 02:04:27;;;;;;;;;;;;;;;23.89;49.58;101127.38;4997562;28;5580;-67
2022/08/03 02:06:53;;;;;;;;;;;;;;;23.87;49.37;101135.22;4993471;28;4409;-66
2022/08/03 02:09:28;;;;;;;;;;;;;;;23.85;49.57;101140.94;4992275;28;4747;-67
2022/08/03 02:11:54;;;;;;;;;;;;;;;23.87;49.46;101129.41;5001793;28;4512;-65
2022/08/03 02:14:20;;;;;;;;;;;;;;;23.88;49.36;101134.56;4998233;28;4128;-67
2022/08/03 02:16:47;;;;;;;;;;;;;;;23.88;49.09;101137.44;4994699;28;5340;-66
2022/08/03 02:19:13;;;;;;;;;;;;;;;23.88;49.37;101136.72;4997156;28;5282;-67
2022/08/03 02:21:40;;;;;;;;;;;;;;;23.88;49.09;101136.72;4994075;28;4455;-66
2022/08/03 02:24:26;;;;;;;;;;;;;;;23.88;49.17;101130.91;4995777;28;4548;-66
2022/08/03 02:26:52;;;;;;;;;;;;;;;23.92;48.84;101136.84;4996746;28;4150;-67
2022/08/03 02:29:20;;;;;;;;;;;;;;;23.88;48.99;101130.91;4995852;28;5612;-67
2022/08/03 02:32:05;;;;;;;;;;;;;;;23.88;49.20;101133.81;4993081;28;5265;-66
2022/08/03 02:34:33;;;;;;;;;;;;;;;23.87;49.05;101141.75;4997812;28;4152;-67
2022/08/03 02:37:00;;;;;;;;;;;;;;;23.83;49.01;101136.56;4992384;28;4605;-67
2022/08/03 02:39:26;;;;;;;;;;;;;;;23.84;49.11;101137.28;4995631;28;4583;-67
2022/08/03 02:41:54;;;;;;;;;;;;;;;23.83;49.01;101142.34;4998158;28;4202;-67
2022/08/03 02:44:22;;;;;;;;;;;;;;;23.81;49.26;101150.94;4992425;28;4507;-67
2022/08/03 02:46:49;;;;;;;;;;;;;;;23.78;49.26;101134.94;4995450;28;4609;-66
2022/08/03 02:49:15;;;;;;;;;;;;;;;23.79;49.11;101142.19;4993442;28;6279;-66
2022/08/03 02:52:02;;;;;;;;;;;;;;;23.78;49.02;101139.97;4994944;28;4451;-67
2022/08/03 02:54:29;;;;;;;;;;;;;;;23.76;49.21;101143.53;4996458;28;4419;-66
2022/08/03 02:56:55;;;;;;;;;;;;;;;23.76;49.05;101146.41;4995926;28;4171;-66
2022/08/03 02:59:22;;;;;;;;;;;;;;;23.78;49.16;101152.28;4993615;28;4472;-66
2022/08/03 03:01:48;;;;;;;;;;;;;;;23.78;49.03;101152.28;4993744;28;5784;-67
2022/08/03 03:04:14;;;;;;;;;;;;;;;23.76;49.50;101148.56;4993977;28;4233;-66
2022/08/03 03:06:42;;;;;;;;;;;;;;;23.76;49.17;101149.31;4992402;28;4417;-67
2022/08/03 03:09:12;;;;;;;;;;;;;;;23.76;49.61;101152.19;4994753;28;4538;-67
2022/08/03 03:11:38;;;;;;;;;;;;;;;23.79;49.60;101153.75;4994906;28;4378;-67
2022/08/03 03:14:04;;;;;;;;;;;;;;;23.86;49.50;101148.19;4994394;28;4608;-66
2022/08/03 03:16:34;;;;;;;;;;;;;;;23.83;49.73;101141.59;4995760;28;4556;-67
2022/08/03 03:19:00;;;;;;;;;;;;;;;23.80;49.98;101149.47;4996009;28;4220;-67
2022/08/03 03:21:26;;;;;;;;;;;;;;;23.81;49.89;101150.94;4996260;28;4525;-67
2022/08/03 03:23:53;;;;;;;;;;;;;;;23.79;50.09;101147.22;4993858;28;5239;-67
2022/08/03 03:26:19;;;;;;;;;;;;;;;23.78;50.15;101145.75;5002776;28;4269;-66
2022/08/03 03:28:46;;;;;;;;;;;;;;;23.79;50.09;101147.22;4997449;28;4530;-67
2022/08/03 03:31:12;;;;;;;;;;;;;;;23.77;50.35;101136.31;4990058;28;5389;-67
2022/08/03 03:33:38;;;;;;;;;;;;;;;23.79;50.28;101136.41;4996036;28;4366;-67
2022/08/03 03:36:05;;;;;;;;;;;;;;;23.77;50.40;101139.22;4996042;28;6377;-67
2022/08/03 03:38:31;;;;;;;;;;;;;;;23.77;50.43;101144.25;4993325;28;5597;-67
2022/08/03 03:40:58;;;;;;;;;;;;;;;23.77;50.29;101144.25;4996358;28;4618;-67
2022/08/03 03:43:24;;;;;;;;;;;;;;;23.78;50.56;101139.97;4994444;28;4391;-67
2022/08/03 03:45:52;;;;;;;;;;;;;;;23.76;50.27;101131.97;4997816;28;4547;-66
2022/08/03 03:48:18;;;;;;;;;;;;;;;23.77;50.63;101145.00;4994554;28;4506;-67
2022/08/03 03:50:45;;;;;;;;;;;;;;;23.76;50.41;101137.00;4996365;28;4227;-67
2022/08/03 03:53:11;;;;;;;;;;;;;;;23.79;50.51;101142.19;4996297;28;5069;-67
2022/08/03 03:55:38;;;;;;;;;;;;;;;23.79;50.66;101141.44;4995862;28;4640;-67
2022/08/03 03:58:25;;;;;;;;;;;;;;;23.76;50.48;101143.53;4997188;28;5617;-67
2022/08/03 04:00:52;;;;;;;;;;;;;;;23.74;50.67;101134.78;4995951;28;4237;-67
2022/08/03 04:03:19;;;;;;;;;;;;;;;23.79;50.47;101135.66;4993524;28;4416;-66
2022/08/03 04:11:16;;;;;;;;;;;;;;;23.23;51.33;101135.72;4994145;28;4602;-69
2022/08/03 04:13:49;;;;;;;;;;;;;;;22.97;52.34;101139.00;4993411;28;4316;-65
2022/08/03 04:16:17;;;;;;;;;;;;;;;22.87;52.50;101143.66;4990186;28;4573;-70
2022/08/03 04:18:43;;;;;;;;;;;;;;;23.01;51.72;101144.25;4992310;28;4804;-70
2022/08/03 04:21:10;;;;;;;;;;;;;;;22.89;52.15;101137.97;4995690;28;4187;-70
2022/08/03 04:23:36;;;;;;;;;;;;;;;22.84;52.75;101142.81;4994260;28;4263;-70
2022/08/03 04:26:03;;;;;;;;;;;;;;;22.59;53.42;101147.59;4996942;28;4603;-70
2022/08/03 04:28:29;;;;;;;;;;;;;;;22.56;53.77;101140.25;4996793;28;5310;-70
2022/08/03 04:30:58;;;;;;;;;;;;;;;22.79;53.17;101147.69;4996991;28;6524;-70
2022/08/03 04:33:25;;;;;;;;;;;;;;;22.64;54.18;101142.00;4996001;28;4402;-70
2022/08/03 04:35:54;;;;;;;;;;;;;;;22.63;54.30;101138.38;4996109;28;4222;-70
2022/08/03 04:38:28;;;;;;;;;;;;;;;22.65;54.42;101155.75;4995849;28;5137;-70
2022/08/03 04:40:55;;;;;;;;;;;;;;;22.72;54.13;101148.09;4996383;28;4663;-70
2022/08/03 04:43:21;;;;;;;;;;;;;;;22.80;54.26;101151.31;4996287;28;4671;-70
2022/08/03 04:45:48;;;;;;;;;;;;;;;22.62;54.78;101144.78;4997835;28;4918;-69
2022/08/03 04:48:14;;;;;;;;;;;;;;;22.65;54.98;101155.00;4997908;28;6721;-70
2022/08/03 04:50:41;;;;;;;;;;;;;;;22.53;55.06;101150.22;5000254;28;4100;-70
2022/08/03 04:53:07;;;;;;;;;;;;;;;22.72;54.47;101156.75;4999654;28;4614;-71
2022/08/03 04:55:34;;;;;;;;;;;;;;;22.81;53.99;101155.69;4999985;28;4090;-70
2022/08/03 04:58:01;;;;;;;;;;;;;;;22.73;54.18;101155.38;4999792;28;4597;-70
2022/08/03 05:00:27;;;;;;;;;;;;;;;22.80;53.87;101157.09;4998986;28;4100;-70
2022/08/03 05:02:54;;;;;;;;;;;;;;;22.86;53.74;101156.59;5000652;28;4097;-69
2022/08/03 05:05:20;;;;;;;;;;;;;;;22.87;53.62;101152.31;4998763;28;6042;-69
2022/08/03 05:07:48;;;;;;;;;;;;;;;22.87;53.72;101158.81;4999741;28;4652;-69
2022/08/03 05:10:15;;;;;;;;;;;;;;;22.89;53.68;101164.69;4999464;28;4546;-69
2022/08/03 05:12:42;;;;;;;;;;;;;;;22.82;53.69;101160.06;4998866;28;4480;-69
2022/08/03 05:15:09;;;;;;;;;;;;;;;22.81;54.35;101161.44;4996858;28;5341;-69
2022/08/03 05:17:35;;;;;;;;;;;;;;;22.87;53.86;101166.75;4990461;28;4068;-67
2022/08/03 05:20:03;;;;;;;;;;;;;;;22.97;53.86;101167.88;4995467;28;4334;-67
2022/08/03 05:22:29;;;;;;;;;;;;;;;23.07;53.48;101169.75;4996869;28;5389;-68
2022/08/03 05:24:56;;;;;;;;;;;;;;;23.11;53.77;101158.34;4997202;28;4471;-68
2022/08/03 05:27:22;;;;;;;;;;;;;;;23.14;53.92;101166.44;4998820;28;4369;-67
2022/08/03 05:29:49;;;;;;;;;;;;;;;23.16;54.35;101165.78;4999390;28;3972;-67
2022/08/03 05:32:15;;;;;;;;;;;;;;;23.18;54.41;101165.84;4997710;28;4588;-68
2022/08/03 05:34:42;;;;;;;;;;;;;;;23.18;54.53;101162.94;4997286;28;4707;-67
2022/08/03 05:37:08;;;;;;;;;;;;;;;23.19;54.04;101162.31;4997274;28;4419;-68
2022/08/03 05:39:34;;;;;;;;;;;;;;;23.21;54.12;101167.41;4997765;28;4409;-68
2022/08/03 05:42:01;;;;;;;;;;;;;;;23.23;54.41;101170.41;4998548;28;4135;-67
2022/08/03 05:44:27;;;;;;;;;;;;;;;23.23;54.23;101170.41;4998676;28;5248;-68
2022/08/03 05:46:56;;;;;;;;;;;;;;;23.25;54.28;101173.38;4999328;28;4881;-68
2022/08/03 05:49:22;;;;;;;;;;;;;;;23.27;54.14;101175.56;4998824;28;5073;-68
2022/08/03 05:51:48;;;;;;;;;;;;;;;23.26;54.36;101177.72;4998604;28;5306;-68
2022/08/03 05:54:35;;;;;;;;;;;;;;;23.28;53.89;101172.03;4999455;28;5916;-68
2022/08/03 05:57:21;;;;;;;;;;;;;;;23.29;54.40;101178.56;4996133;28;4515;-67
2022/08/03 05:59:47;;;;;;;;;;;;;;;23.30;54.07;101180.78;4996405;28;4475;-68
2022/08/03 06:02:24;;;;;;;;;;;;;;;23.31;54.13;101179.38;4996129;28;5614;-67
2022/08/03 06:04:51;;;;;;;;;;;;;;;23.32;54.46;101183.00;4997522;28;5630;-68
2022/08/03 06:07:17;;;;;;;;;;;;;;;23.31;54.71;101176.47;4997817;28;4524;-68
2022/08/03 06:09:43;;;;;;;;;;;;;;;23.33;54.51;101179.44;4998046;28;4508;-67
2022/08/03 06:12:30;;;;;;;;;;;;;;;23.33;54.33;101182.34;4997432;28;5242;-68
2022/08/03 06:14:56;;;;;;;;;;;;;;;23.35;54.50;101179.53;4997075;28;4213;-68
2022/08/03 06:17:22;;;;;;;;;;;;;;;23.34;54.53;101178.06;4996084;28;4574;-68
2022/08/03 06:19:52;;;;;;;;;;;;;;;23.34;54.35;101178.06;4998228;28;5252;-68
2022/08/03 06:22:19;;;;;;;;;;;;;;;23.36;54.58;101175.22;4996554;28;4846;-68
2022/08/03 06:24:46;;;;;;;;;;;;;;;23.37;54.20;101181.75;4998522;28;4542;-68
2022/08/03 06:27:19;;;;;;;;;;;;;;;23.36;54.58;101178.13;4997362;28;4079;-68
2022/08/03 06:30:02;;;;;;;;;;;;;;;23.39;54.20;101181.84;4995927;28;4263;-68
2022/08/03 06:32:28;;;;;;;;;;;;;;;23.38;54.41;101178.19;4997414;28;5641;-68
2022/08/03 06:34:54;;;;;;;;;;;;;;;23.42;53.95;101178.34;4996978;28;4615;-68
2022/08/03 06:37:22;;;;;;;;;;;;;;;23.41;53.53;101179.78;4996258;28;5490;-68
2022/08/03 06:39:48;;;;;;;;;;;;;;;23.40;54.01;101181.16;4996998;28;4559;-68
2022/08/03 06:42:14;;;;;;;;;;;;;;;23.41;54.15;101179.03;4998186;28;5326;-68
2022/08/03 06:44:41;;;;;;;;;;;;;;;23.41;54.13;101179.03;4997612;28;4295;-68
2022/08/03 06:47:07;;;;;;;;;;;;;;;23.41;54.06;101179.78;4996907;28;4190;-67
2022/08/03 06:49:34;;;;;;;;;;;;;;;23.41;54.22;101182.66;4998417;28;4175;-68
2022/08/03 06:52:00;;;;;;;;;;;;;;;23.42;53.94;101175.47;4997039;28;4409;-68
2022/08/03 06:54:31;;;;;;;;;;;;;;;23.44;54.03;101177.72;4997688;28;4580;-68
2022/08/03 06:56:58;;;;;;;;;;;;;;;23.44;54.34;101176.97;4996318;28;5299;-68
2022/08/03 06:59:25;;;;;;;;;;;;;;;23.44;54.33;101174.06;4997441;28;4417;-68
2022/08/03 07:02:11;;;;;;;;;;;;;;;23.45;54.05;101173.41;4997725;28;4575;-68
2022/08/03 07:04:44;;;;;;;;;;;;;;;23.45;54.11;101164.72;4997631;28;4771;-68
2022/08/03 07:07:10;;;;;;;;;;;;;;;23.46;54.27;101174.16;4997060;28;4421;-68
2022/08/03 07:09:37;;;;;;;;;;;;;;;23.47;54.29;101172.75;4997787;28;4408;-69
2022/08/03 07:12:05;;;;;;;;;;;;;;;23.47;54.28;101169.84;4996081;28;5109;-69
2022/08/03 07:14:31;;;;;;;;;;;;;;;23.47;54.19;101164.06;4997784;28;4487;-69
2022/08/03 07:16:58;;;;;;;;;;;;;;;23.48;54.32;101171.31;4996383;28;4577;-68
2022/08/03 07:19:24;;;;;;;;;;;;;;;23.49;54.00;101178.59;4997073;28;5339;-69
2022/08/03 07:21:51;;;;;;;;;;;;;;;23.49;54.05;101172.81;4998122;28;6058;-68
2022/08/03 07:24:18;;;;;;;;;;;;;;;23.49;54.29;101173.56;4998391;28;4400;-69
2022/08/03 07:26:45;;;;;;;;;;;;;;;23.50;54.35;101171.41;4997440;28;4286;-69
2022/08/03 07:29:13;;;;;;;;;;;;;;;23.50;54.15;101171.41;4996419;28;5206;-68
2022/08/03 07:31:40;;;;;;;;;;;;;;;23.51;54.13;101164.22;4996787;28;4883;-68
2022/08/03 07:34:07;;;;;;;;;;;;;;;23.51;54.34;101172.91;4995301;28;4499;-67
2022/08/03 07:36:33;;;;;;;;;;;;;;;23.51;54.30;101175.78;4996055;28;4572;-68
2022/08/03 07:39:00;;;;;;;;;;;;;;;23.51;54.05;101175.78;4996996;28;5398;-68
2022/08/03 07:41:41;;;;;;;;;;;;;;;23.51;54.35;101176.53;4996719;28;4224;-69
2022/08/03 07:44:07;;;;;;;;;;;;;;;23.51;54.07;101179.41;4996795;28;6603;-67
2022/08/03 07:46:33;;;;;;;;;;;;;;;23.52;54.13;101174.38;4997319;28;4664;-69
2022/08/03 07:49:00;;;;;;;;;;;;;;;23.52;53.76;101168.59;4998430;28;6423;-68
2022/08/03 07:51:26;;;;;;;;;;;;;;;23.54;54.27;101180.25;4995488;28;5387;-68
2022/08/03 07:53:56;;;;;;;;;;;;;;;23.55;53.93;101178.84;4998037;28;4161;-68
2022/08/03 07:56:23;;;;;;;;;;;;;;;23.55;54.13;101178.84;4995670;28;4569;-68
2022/08/03 07:58:50;;;;;;;;;;;;;;;23.56;54.05;101180.31;4996755;28;5432;-68
2022/08/03 08:01:18;;;;;;;;;;;;;;;23.55;54.21;101176.69;4995598;28;4639;-68
2022/08/03 08:03:47;;;;;;;;;;;;;;;23.56;53.90;101171.66;4996612;28;4526;-69
2022/08/03 08:06:18;;;;;;;;;;;;;;;23.56;54.33;101186.09;4993841;28;4577;-69
2022/08/03 08:08:45;;;;;;;;;;;;;;;23.55;53.92;101182.47;4997580;28;5256;-69
2022/08/03 08:11:11;;;;;;;;;;;;;;;23.56;54.07;101174.53;4997529;28;5268;-68
2022/08/03 08:13:38;;;;;;;;;;;;;;;23.56;54.04;101177.44;4995715;28;4100;-68
2022/08/03 08:16:04;;;;;;;;;;;;;;;23.56;53.92;101183.22;4996659;28;5126;-68
2022/08/03 08:18:31;;;;;;;;;;;;;;;23.57;53.83;101176.00;4996195;28;4176;-68
2022/08/03 08:20:57;;;;;;;;;;;;;;;23.57;54.02;101179.66;4995949;28;4189;-68
2022/08/03 08:23:24;;;;;;;;;;;;;;;23.57;53.97;101176.78;4998378;28;4146;-68
2022/08/03 08:26:10;;;;;;;;;;;;;;;23.59;53.81;101176.09;4999744;28;4478;-68
2022/08/03 08:28:36;;;;;;;;;;;;;;;23.59;54.05;101181.88;5000960;28;4594;-68
2022/08/03 08:31:03;;;;;;;;;;;;;;;23.59;54.10;101176.09;4998362;28;5666;-69
2022/08/03 08:33:29;;;;;;;;;;;;;;;23.59;54.02;101176.09;4997135;28;4447;-68
2022/08/03 08:36:16;;;;;;;;;;;;;;;23.59;53.91;101170.31;5000943;28;4564;-68
2022/08/03 08:38:43;;;;;;;;;;;;;;;23.59;53.74;101171.06;4999153;28;4109;-68
2022/08/03 08:41:10;;;;;;;;;;;;;;;23.60;53.88;101177.59;5000529;28;4227;-68
2022/08/03 08:43:36;;;;;;;;;;;;;;;23.60;53.89;101174.69;4999690;28;4451;-68
2022/08/03 08:46:03;;;;;;;;;;;;;;;23.60;53.72;101160.97;5000046;28;4455;-68
2022/08/03 08:48:30;;;;;;;;;;;;;;;23.61;53.66;101173.28;5001115;28;5827;-68
2022/08/03 08:50:57;;;;;;;;;;;;;;;23.60;53.80;101166.75;4999729;28;5293;-68
2022/08/03 08:53:27;;;;;;;;;;;;;;;23.62;53.75;101174.78;4998029;28;4181;-69
2022/08/03 08:56:00;;;;;;;;;;;;;;;23.61;53.78;101168.22;4999725;28;4636;-68
2022/08/03 08:58:33;;;;;;;;;;;;;;;23.63;53.66;101167.56;5004141;28;4561;-68
2022/08/03 09:00:59;;;;;;;;;;;;;;;23.62;53.95;101174.78;4999958;28;4574;-69
2022/08/03 09:03:26;;;;;;;;;;;;;;;23.62;53.83;101163.94;4997679;28;4179;-68
2022/08/03 09:05:55;;;;;;;;;;;;;;;23.63;53.72;101164.69;5000743;28;5375;-67
2022/08/03 09:08:22;;;;;;;;;;;;;;;23.63;53.94;101165.41;4998808;28;5757;-67
2022/08/03 09:10:48;;;;;;;;;;;;;;;23.62;53.83;101158.16;4999577;28;4419;-68
2022/08/03 09:13:14;;;;;;;;;;;;;;;23.63;53.73;101158.91;4999071;28;5273;-68
2022/08/03 09:15:41;;;;;;;;;;;;;;;23.63;53.69;101165.41;4999939;28;4583;-68
2022/08/03 09:18:29;;;;;;;;;;;;;;;23.63;53.66;101165.41;4999353;28;4177;-68
2022/08/03 09:21:11;;;;;;;;;;;;;;;23.64;53.80;101154.63;4999292;28;4386;-67
2022/08/03 09:23:56;;;;;;;;;;;;;;;23.65;53.61;101161.88;5001154;28;4197;-68
2022/08/03 09:26:33;;;;;;;;;;;;;;;23.66;53.85;101166.25;4998859;28;4427;-68
2022/08/03 09:29:00;;;;;;;;;;;;;;;23.66;53.40;101157.56;4998833;28;4436;-68
2022/08/03 09:31:35;;;;;;;;;;;;;;;23.66;53.50;101151.78;5000281;28;5484;-68
2022/08/03 09:34:05;;;;;;;;;;;;;;;23.66;53.56;101148.88;4999289;28;5650;-69
2022/08/03 09:36:38;;;;;;;;;;;;;;;23.67;53.33;101150.38;4995790;28;5238;-69
2022/08/03 09:39:06;;;;;;;;;;;;;;;23.68;53.12;101160.53;4997472;28;4247;-68
2022/08/03 09:41:32;;;;;;;;;;;;;;;23.69;52.98;101162.03;4999257;28;4585;-68
2022/08/03 09:43:58;;;;;;;;;;;;;;;23.69;52.91;101156.25;4998172;28;4921;-68
2022/08/03 09:46:27;;;;;;;;;;;;;;;23.69;53.02;101162.03;4997339;28;4686;-68
2022/08/03 09:48:53;;;;;;;;;;;;;;;23.68;52.92;101151.84;4997312;28;4448;-68
2022/08/03 09:51:23;;;;;;;;;;;;;;;23.69;53.28;101162.03;4998495;28;4405;-68
2022/08/03 09:54:09;;;;;;;;;;;;;;;23.69;52.96;101153.34;4996406;28;4359;-68
2022/08/03 09:56:46;;;;;;;;;;;;;;;23.69;53.26;101153.34;4998767;28;5262;-68
2022/08/03 09:59:12;;;;;;;;;;;;;;;23.69;52.97;101144.69;4998572;28;4428;-68
2022/08/03 10:01:41;;;;;;;;;;;;;;;23.70;53.37;101151.94;4997475;28;4205;-68
2022/08/03 10:04:12;;;;;;;;;;;;;;;23.70;53.20;101146.16;4998621;28;5858;-67
2022/08/03 10:06:39;;;;;;;;;;;;;;;23.70;53.39;101151.94;4998412;28;5554;-67
2022/08/03 10:09:06;;;;;;;;;;;;;;;23.70;53.39;101140.38;4997847;28;4218;-67
2022/08/03 10:11:33;;;;;;;;;;;;;;;23.71;53.31;101138.22;4996143;28;5267;-68
2022/08/03 10:14:07;;;;;;;;;;;;;;;23.71;53.20;101133.19;4997734;28;4577;-67
2022/08/03 10:16:34;;;;;;;;;;;;;;;23.71;53.37;101136.09;4997786;28;5560;-67
2022/08/03 10:19:01;;;;;;;;;;;;;;;23.70;53.26;101128.81;4997779;28;4582;-68
2022/08/03 10:21:30;;;;;;;;;;;;;;;23.72;53.19;101134.66;4995952;28;4676;-67
2022/08/03 10:23:57;;;;;;;;;;;;;;;23.72;53.01;101125.25;4998646;28;4056;-67
2022/08/03 10:26:23;;;;;;;;;;;;;;;23.73;53.03;101127.50;4997096;28;5334;-68
2022/08/03 10:28:49;;;;;;;;;;;;;;;23.73;52.93;101115.94;4997861;28;4148;-68
2022/08/03 10:31:16;;;;;;;;;;;;;;;23.73;53.14;101121.72;4997251;28;4603;-67
2022/08/03 10:33:43;;;;;;;;;;;;;;;23.77;52.02;101124.03;4993546;28;4624;-62
2022/08/03 10:36:17;;;;;;;;;;;;;;;23.82;51.95;101114.84;4996932;28;5806;-62
2022/08/03 10:38:46;;;;;;;;;;;;;;;23.82;51.88;101119.84;4991969;28;4239;-70
2022/08/03 10:41:12;;;;;;;;;;;;;;;23.83;51.68;101112.69;4997829;28;6087;-62
2022/08/03 10:43:47;;;;;;;;;;;;;;;23.83;51.79;101110.53;4994173;28;4198;-63
2022/08/03 10:46:14;;;;;;;;;;;;;;;23.83;51.54;101118.47;4995755;28;5603;-63
2022/08/03 10:48:41;;;;;;;;;;;;;;;23.83;51.84;101110.53;4999695;28;5955;-61
2022/08/03 10:51:07;;;;;;;;;;;;;;;23.84;51.96;101111.25;4990447;28;4511;-63
2022/08/03 10:53:34;;;;;;;;;;;;;;;23.85;52.39;101101.19;4996788;28;4371;-63
2022/08/03 10:59:06;;;;;;;;;;;;;;;23.86;53.21;101093.25;4996515;28;4524;-62
2022/08/03 11:01:48;;;;;;;;;;;;;;;23.85;53.25;101092.50;4995613;28;4660;-61
2022/08/03 11:04:28;;;;;;;;;;;;;;;23.87;53.34;101083.16;4996376;28;5205;-62
2022/08/03 11:07:14;;;;;;;;;;;;;;;23.87;53.40;101094.72;4998548;28;4570;-62
2022/08/03 11:09:41;;;;;;;;;;;;;;;23.86;53.57;101087.47;4994197;28;5166;-62
2022/08/03 11:12:20;;;;;;;;;;;;;;;23.86;53.59;101087.47;4997068;28;4759;-63
2022/08/03 11:14:56;;;;;;;;;;;;;;;23.86;53.57;101085.31;4996302;28;4062;-61
2022/08/03 11:17:23;;;;;;;;;;;;;;;23.86;53.49;101081.69;4997242;28;4189;-62
2022/08/03 11:19:49;;;;;;;;;;;;;;;23.87;53.29;101083.16;4993665;28;4496;-77
2022/08/03 11:22:23;;;;;;;;;;;;;;;23.92;53.31;101087.69;4995983;28;5145;-62
2022/08/03 11:24:56;;;;;;;;;;;;;;;23.92;52.96;101091.31;4996119;28;4439;-61
2022/08/03 11:27:32;;;;;;;;;;;;;;;23.93;53.34;101083.38;4995490;28;4424;-62
2022/08/03 11:29:59;;;;;;;;;;;;;;;23.93;53.23;101086.25;4997747;28;4136;-62
2022/08/03 11:32:49;;;;;;;;;;;;;;;23.92;53.53;101087.69;4994768;28;4154;-62
2022/08/03 11:35:16;;;;;;;;;;;;;;;23.92;53.21;101084.81;4996782;28;4439;-62
2022/08/03 11:38:01;;;;;;;;;;;;;;;23.92;53.17;101091.31;4994963;28;4651;-62
2022/08/03 11:40:33;;;;;;;;;;;;;;;23.92;53.07;101088.44;4997243;28;4562;-62
2022/08/03 11:43:00;;;;;;;;;;;;;;;23.92;53.47;101093.47;4996674;28;5314;-62
2022/08/03 11:45:26;;;;;;;;;;;;;;;23.94;53.42;101087.75;4995295;28;5411;-66
2022/08/03 11:47:53;;;;;;;;;;;;;;;23.94;53.39;101079.09;4991562;28;5341;-67
2022/08/03 11:50:20;;;;;;;;;;;;;;;23.96;53.30;101074.13;4994291;28;4447;-62
2022/08/03 11:52:46;;;;;;;;;;;;;;;23.98;53.15;101079.97;4990051;28;5224;-62
2022/08/03 11:55:13;;;;;;;;;;;;;;;24.01;53.17;101069.94;4994522;28;4740;-62
2022/08/03 11:57:40;;;;;;;;;;;;;;;24.01;53.30;101072.09;4995343;28;4108;-63
2022/08/03 12:00:29;;;;;;;;;;;;;;;24.01;53.39;101066.31;4997133;28;4572;-63
2022/08/03 12:03:00;;;;;;;;;;;;;;;24.02;53.56;101070.69;4999802;28;4124;-63
2022/08/03 12:05:33;;;;;;;;;;;;;;;24.02;53.54;101067.78;4997450;28;6203;-65
2022/08/03 12:07:59;;;;;;;;;;;;;;;24.03;53.33;101069.28;5001886;28;4678;-64
2022/08/03 12:10:31;;;;;;;;;;;;;;;24.02;53.48;101071.41;5000173;28;5063;-63
2022/08/03 12:12:58;;;;;;;;;;;;;;;24.04;53.48;101062.06;5000974;28;4240;-61
2022/08/03 12:15:28;;;;;;;;;;;;;;;24.03;53.30;101066.38;4999606;28;4545;-62
2022/08/03 12:17:54;;;;;;;;;;;;;;;24.03;53.60;101060.59;5000534;28;5271;-65
2022/08/03 12:20:24;;;;;;;;;;;;;;;24.06;53.62;101061.41;5000396;28;4523;-63
2022/08/03 12:23:03;;;;;;;;;;;;;;;24.06;53.91;101067.94;5001828;28;4301;-62
2022/08/03 12:25:30;;;;;;;;;;;;;;;24.07;54.70;101057.09;5000216;28;5112;-65
2022/08/03 12:28:10;;;;;;;;;;;;;;;24.07;55.39;101049.16;4998750;28;4783;-63
2022/08/03 12:30:59;;;;;;;;;;;;;;;24.11;56.36;101049.28;4999771;28;5532;-64
2022/08/03 12:33:25;;;;;;;;;;;;;;;24.14;56.32;101047.22;4999784;28;5721;-63
2022/08/03 12:36:03;;;;;;;;;;;;;;;24.13;56.23;101052.25;5000777;28;4035;-62
2022/08/03 12:38:30;;;;;;;;;;;;;;;24.13;56.61;101043.56;5000088;28;4490;-63
2022/08/03 12:41:02;;;;;;;;;;;;;;;24.14;56.92;101038.53;4999858;28;5380;-63
2022/08/03 12:43:29;;;;;;;;;;;;;;;24.14;57.47;101038.53;4999429;28;4226;-64
2022/08/03 12:46:11;;;;;;;;;;;;;;;24.16;58.50;101033.53;4999503;28;5860;-63
2022/08/03 12:49:00;;;;;;;;;;;;;;;24.17;58.98;101028.53;5000442;28;4406;-62
2022/08/03 12:51:27;;;;;;;;;;;;;;;24.17;59.45;101035.03;5000103;28;5636;-64
2022/08/03 12:53:53;;;;;;;;;;;;;;;24.18;59.71;101027.09;5000378;28;4516;-62
2022/08/03 12:56:20;;;;;;;;;;;;;;;24.19;60.12;101025.66;5000184;28;4450;-64
2022/08/03 12:58:46;;;;;;;;;;;;;;;24.21;60.53;101023.59;4999757;28;5918;-64
2022/08/03 13:01:13;;;;;;;;;;;;;;;24.21;61.02;101017.06;4999240;28;4443;-65
2022/08/03 13:03:40;;;;;;;;;;;;;;;24.21;61.32;101028.63;5000373;28;4072;-65
2022/08/03 13:06:12;;;;;;;;;;;;;;;24.21;61.34;101023.59;4998254;28;4579;-64
2022/08/03 13:08:38;;;;;;;;;;;;;;;24.21;61.05;101023.59;4998715;28;4149;-63